Time;durP1;ratioP1;P1;durP2;ratioP2;P2;SDS_P1;SDS_P2;PMS_P1;PMS_P2;Temp;Humidity;BMP_temperature;BMP_pressure;BME280_temperature;BME280_humidity;BME280_pressure;Samples;Min_cycle;Max_cycle;Signal;HPM_P1;HPM_P2
2022/01/18 00:02:03;;;;;;;196.65;40.90;;;;;;;1.82;100.00;103781.06;5346036;27;20442;-83
2022/01/18 00:04:35;;;;;;;235.57;52.85;;;;;;;2.08;100.00;103772.88;5348309;27;20028;-83
2022/01/18 00:07:07;;;;;;;190.38;40.63;;;;;;;2.11;100.00;103771.13;5347256;27;20039;-83
2022/01/18 00:09:38;;;;;;;81.55;29.13;;;;;;;2.16;100.00;103779.84;5347942;27;20036;-83
2022/01/18 00:12:31;;;;;;;170.55;44.88;;;;;;;2.12;100.00;103772.84;5347904;27;20050;-84
2022/01/18 00:15:28;;;;;;;59.83;24.17;;;;;;;2.29;100.00;103788.47;5342253;27;20655;-83
2022/01/18 00:18:10;;;;;;;73.95;26.30;;;;;;;2.38;100.00;103791.00;5348124;27;20122;-84
2022/01/18 00:20:56;;;;;;;78.40;26.48;;;;;;;2.46;100.00;103786.53;5347398;27;20035;-83
2022/01/18 00:23:27;;;;;;;194.13;52.88;;;;;;;2.69;100.00;103790.66;5343736;27;20035;-83
2022/01/18 00:25:59;;;;;;;202.13;52.65;;;;;;;2.55;100.00;103775.88;5342716;27;20088;-83
2022/01/18 00:28:31;;;;;;;164.95;49.50;;;;;;;2.96;100.00;103781.50;5346923;27;20066;-83
2022/01/18 00:34:04;;;;;;;157.77;45.30;;;;;;;2.98;100.00;103796.44;5348870;27;20043;-83
2022/01/18 00:39:11;;;;;;;217.18;67.93;;;;;;;3.23;100.00;103804.00;5356148;27;20053;-83
2022/01/18 00:41:42;;;;;;;179.25;55.78;;;;;;;3.29;100.00;103803.03;5356193;27;20531;-83
2022/01/18 00:44:14;;;;;;;254.48;75.20;;;;;;;3.54;100.00;103806.16;5357315;27;20023;-83
2022/01/18 00:46:46;;;;;;;142.73;43.80;;;;;;;3.21;100.00;103805.78;5357300;27;20043;-83
2022/01/18 00:49:17;;;;;;;183.75;51.65;;;;;;;3.16;100.00;103804.97;5354354;27;20069;-83
2022/01/18 00:51:55;;;;;;;202.93;61.83;;;;;;;3.31;100.00;103803.88;5357690;27;20069;-83
2022/01/18 00:54:33;;;;;;;163.40;49.53;;;;;;;3.34;100.00;103809.97;5356721;27;20475;-83
2022/01/18 00:57:05;;;;;;;177.52;55.47;;;;;;;3.65;100.00;103824.50;5357127;27;20084;-83
2022/01/18 00:59:40;;;;;;;130.73;45.83;;;;;;;3.56;100.00;103821.09;5358214;27;20383;-83
2022/01/18 01:02:11;;;;;;;180.52;53.72;;;;;;;3.51;100.00;103820.28;5356419;27;20074;-83
2022/01/18 01:04:47;;;;;;;148.98;43.90;;;;;;;3.43;100.00;103822.16;5350561;27;20051;-84
2022/01/18 01:07:22;;;;;;;108.05;36.70;;;;;;;3.38;100.00;103814.34;5350034;27;20027;-83
2022/01/18 01:09:54;;;;;;;159.93;46.47;;;;;;;3.55;100.00;103813.19;5350071;27;20027;-83
2022/01/18 01:12:26;;;;;;;116.13;34.28;;;;;;;3.29;100.00;103811.81;5349608;27;20035;-84
2022/01/18 01:15:05;;;;;;;112.80;34.92;;;;;;;3.32;100.00;103811.75;5349841;27;20035;-83
2022/01/18 01:17:48;;;;;;;132.13;44.95;;;;;;;3.55;100.00;103818.47;5348905;27;20387;-83
2022/01/18 01:45:42;;;;;;;120.35;36.17;;;;;;;3.54;100.00;103792.97;5344909;27;20036;-84
2022/01/18 01:48:13;;;;;;;168.93;48.65;;;;;;;3.86;100.00;103810.94;5344887;27;20088;-80
2022/01/18 01:50:55;;;;;;;144.18;44.58;;;;;;;3.92;100.00;103802.03;5346442;27;20365;-83
2022/01/18 01:53:27;;;;;;;112.45;38.60;;;;;;;3.88;100.00;103803.84;5346112;27;20479;-83
2022/01/18 01:55:59;;;;;;;116.30;39.05;;;;;;;3.90;100.00;103806.47;5345720;27;20035;-83
2022/01/18 01:58:31;;;;;;;130.07;39.55;;;;;;;3.79;100.00;103798.72;5347270;27;20096;-84
2022/01/18 02:01:06;;;;;;;117.10;37.95;;;;;;;3.90;100.00;103809.09;5346575;27;20110;-84
2022/01/18 02:03:37;;;;;;;102.88;36.80;;;;;;;3.82;100.00;103803.06;5345690;27;20493;-84
2022/01/18 02:06:08;;;;;;;117.10;37.05;;;;;;;3.85;100.00;103806.53;5347041;27;20035;-84
2022/01/18 02:08:41;;;;;;;124.28;40.22;;;;;;;4.01;100.00;103811.56;5346407;27;20501;-84
2022/01/18 02:11:12;;;;;;;109.75;38.55;;;;;;;3.93;100.00;103819.63;5346071;27;20031;-84
2022/01/18 02:13:43;;;;;;;98.55;35.17;;;;;;;3.79;100.00;103804.88;5347234;27;20081;-84
2022/01/18 02:21:46;;;;;;;91.97;31.83;;;;;;;3.83;100.00;103807.47;5347121;27;20446;-83
2022/01/18 02:21:56;;;;;;;129.52;42.15;;;;;;;4.10;100.00;103809.63;5346093;27;20570;-85
2022/01/18 02:24:27;;;;;;;141.27;47.08;;;;;;;4.26;100.00;103810.22;5346002;27;20026;-84
2022/01/18 02:26:59;;;;;;;100.55;34.45;;;;;;;4.09;100.00;103821.09;5346041;27;20038;-84
2022/01/18 02:29:30;;;;;;;107.18;32.85;;;;;;;4.04;100.00;103806.22;5347386;27;20537;-84
2022/01/18 02:32:03;;;;;;;131.52;41.00;;;;;;;4.13;100.00;103806.91;5344990;27;20099;-83
2022/01/18 02:34:34;;;;;;;109.10;37.70;;;;;;;4.07;100.00;103799.13;5347581;27;20027;-83
2022/01/18 02:37:06;;;;;;;107.53;37.78;;;;;;;4.20;100.00;103807.66;5344824;27;20486;-84
2022/01/18 02:39:39;;;;;;;118.82;38.88;;;;;;;4.26;100.00;103798.75;5345919;27;20031;-84
2022/01/18 02:42:16;;;;;;;116.93;40.67;;;;;;;4.27;100.00;103800.50;5346237;27;20016;-83
2022/01/18 02:44:49;;;;;;;102.72;37.13;;;;;;;4.25;100.00;103800.53;5345905;27;20032;-84
2022/01/18 02:47:22;;;;;;;124.65;39.17;;;;;;;4.26;100.00;103796.09;5344563;27;20051;-84
2022/01/18 02:49:53;;;;;;;112.25;40.13;;;;;;;4.35;100.00;103794.19;5346026;27;20015;-83
2022/01/18 02:52:24;;;;;;;113.15;38.47;;;;;;;4.35;100.00;103799.47;5345624;27;20026;-84
2022/01/18 02:54:55;;;;;;;110.53;40.45;;;;;;;4.44;100.00;103802.84;5346004;27;20547;-84
2022/01/18 02:57:27;;;;;;;98.70;35.65;;;;;;;4.23;100.00;103789.13;5345275;27;20035;-84
2022/01/18 03:00:14;;;;;;;103.57;37.17;;;;;;;4.26;100.00;103794.38;5345096;27;20024;-84
2022/01/18 03:05:35;;;;;;;94.22;34.40;;;;;;;4.09;100.00;103799.09;5344076;27;20487;-84
2022/01/18 03:08:09;;;;;;;94.13;33.47;;;;;;;4.11;100.00;103805.22;5344295;27;20054;-84
2022/01/18 03:10:40;;;;;;;103.45;35.70;;;;;;;4.15;100.00;103798.97;5342670;27;20056;-84
2022/01/18 03:13:12;;;;;;;128.48;40.60;;;;;;;4.39;100.00;103796.75;5344865;27;20054;-84
2022/01/18 03:15:43;;;;;;;106.22;40.42;;;;;;;4.22;100.00;103795.31;5343746;27;20081;-84
2022/01/18 03:18:15;;;;;;;93.45;35.88;;;;;;;4.10;100.00;103787.59;5343567;27;20496;-84
2022/01/18 03:20:46;;;;;;;99.30;36.55;;;;;;;4.16;100.00;103800.72;5345293;27;20024;-84
2022/01/18 03:23:21;;;;;;;107.47;40.22;;;;;;;4.21;100.00;103803.25;5345066;27;20024;-84
2022/01/18 03:25:56;;;;;;;104.32;36.40;;;;;;;4.03;100.00;103817.66;5341888;27;20115;-84
2022/01/18 03:28:28;;;;;;;92.40;36.20;;;;;;;4.14;100.00;103816.59;5344074;27;20020;-84
2022/01/18 03:31:00;;;;;;;90.15;35.00;;;;;;;4.07;100.00;103806.19;5342248;27;20047;-84
2022/01/18 03:33:31;;;;;;;90.30;34.00;;;;;;;4.00;100.00;103804.50;5345489;27;20028;-83
2022/01/18 03:36:05;;;;;;;82.40;35.67;;;;;;;4.12;100.00;103806.94;5345472;27;20487;-83
2022/01/18 03:38:36;;;;;;;92.72;37.97;;;;;;;4.14;100.00;103810.44;5345075;27;20108;-83
2022/01/18 03:41:07;;;;;;;80.80;36.22;;;;;;;4.16;100.00;103814.78;5342461;27;20046;-83
2022/01/18 03:43:41;;;;;;;89.72;35.28;;;;;;;4.04;100.00;103820.28;5344838;27;20108;-84
2022/01/18 03:46:12;;;;;;;95.45;36.42;;;;;;;4.16;100.00;103809.50;5344387;27;20036;-84
2022/01/18 03:48:50;;;;;;;83.85;35.78;;;;;;;4.20;100.00;103809.44;5344030;27;20070;-84
2022/01/18 03:51:21;;;;;;;93.07;39.28;;;;;;;4.37;100.00;103811.78;5344435;27;20027;-84
2022/01/18 03:53:52;;;;;;;106.57;39.63;;;;;;;4.14;100.00;103813.09;5345208;27;20023;-84
2022/01/18 03:56:24;;;;;;;91.53;35.70;;;;;;;4.03;100.00;103818.53;5344642;27;20031;-84
2022/01/18 03:58:55;;;;;;;78.72;34.47;;;;;;;4.10;100.00;103821.94;5345283;27;20032;-84
2022/01/18 04:01:27;;;;;;;75.75;33.63;;;;;;;3.95;100.00;103828.38;5340830;27;20058;-84
2022/01/18 04:03:59;;;;;;;80.65;34.80;;;;;;;3.91;100.00;103827.56;5345756;27;20520;-84
2022/01/18 04:06:30;;;;;;;78.20;33.85;;;;;;;3.91;100.00;103830.22;5348257;27;20051;-84
2022/01/18 04:09:02;;;;;;;72.63;33.83;;;;;;;3.87;100.00;103822.34;5346335;27;20015;-85
2022/01/18 04:11:34;;;;;;;93.97;34.97;;;;;;;3.97;100.00;103829.22;5347229;27;20042;-84
2022/01/18 04:14:05;;;;;;;84.13;34.15;;;;;;;4.09;100.00;103830.78;5348411;27;20024;-84
2022/01/18 04:16:44;;;;;;;81.43;35.00;;;;;;;4.14;100.00;103836.88;5347360;27;20517;-84
2022/01/18 04:27:52;;;;;;;82.15;34.03;;;;;;;4.04;100.00;103840.56;5347862;27;20503;-84
2022/01/18 04:30:24;;;;;;;94.63;34.80;;;;;;;3.91;100.00;103853.09;5339163;27;20027;-84
2022/01/18 04:32:55;;;;;;;79.32;34.05;;;;;;;3.95;100.00;103839.81;5346533;27;20529;-85
2022/01/18 04:35:26;;;;;;;83.35;34.47;;;;;;;3.95;100.00;103839.81;5346428;27;20036;-84
2022/01/18 04:37:58;;;;;;;87.93;36.20;;;;;;;4.03;100.00;103842.31;5347850;27;20446;-84
2022/01/18 04:40:32;;;;;;;86.30;36.03;;;;;;;4.19;100.00;103828.84;5349625;27;20032;-84
2022/01/18 04:43:11;;;;;;;88.70;36.05;;;;;;;3.98;100.00;103836.25;5349520;27;20019;-84
2022/01/18 04:48:35;;;;;;;97.60;38.25;;;;;;;4.11;100.00;103842.19;5347620;27;20032;-84
2022/01/18 04:51:09;;;;;;;110.22;38.50;;;;;;;3.97;100.00;103834.50;5348550;27;20030;-84
2022/01/18 04:53:53;;;;;;;91.55;33.75;;;;;;;4.18;100.00;103842.97;5347718;27;20027;-84
2022/01/18 04:59:10;;;;;;;106.55;35.00;;;;;;;3.90;100.00;103844.28;5347290;27;20443;-84
2022/01/18 05:01:43;;;;;;;98.05;33.38;;;;;;;3.87;100.00;103831.13;5346967;27;20077;-84
2022/01/18 05:04:15;;;;;;;96.40;33.53;;;;;;;3.86;100.00;103849.69;5347202;27;20026;-84
2022/01/18 05:06:46;;;;;;;92.20;33.05;;;;;;;3.71;100.00;103830.50;5348100;27;20031;-83
2022/01/18 05:09:17;;;;;;;104.47;32.33;;;;;;;3.86;100.00;103845.25;5347838;27;20023;-84
2022/01/18 05:12:01;;;;;;;89.18;31.10;;;;;;;3.85;100.00;103847.91;5347929;27;20107;-84
2022/01/18 05:14:35;;;;;;;94.80;32.70;;;;;;;4.01;100.00;103857.31;5345623;27;20027;-84
2022/01/18 05:17:33;;;;;;;72.93;31.60;;;;;;;4.13;100.00;103856.25;5342592;27;20411;-84
2022/01/18 05:23:02;;;;;;;96.00;33.88;;;;;;;4.07;100.00;103851.94;5346115;27;20040;-84
2022/01/18 05:25:34;;;;;;;104.80;33.63;;;;;;;3.97;100.00;103855.63;5343303;27;20028;-84
2022/01/18 05:28:06;;;;;;;86.22;31.85;;;;;;;3.96;100.00;103853.88;5345742;27;20040;-84
2022/01/18 05:30:39;;;;;;;105.63;31.67;;;;;;;3.92;100.00;103850.41;5346559;27;20529;-84
2022/01/18 05:33:10;;;;;;;93.40;31.67;;;;;;;3.83;100.00;103842.66;5345051;27;20016;-84
2022/01/18 05:35:41;;;;;;;103.35;31.23;;;;;;;3.91;100.00;103853.09;5344975;27;20034;-84
2022/01/18 05:38:13;;;;;;;104.90;30.77;;;;;;;3.85;100.00;103853.19;5346498;27;20168;-84
2022/01/18 05:40:44;;;;;;;93.10;29.85;;;;;;;3.89;100.00;103855.78;5345067;27;20110;-84
2022/01/18 05:43:16;;;;;;;94.50;30.10;;;;;;;3.88;100.00;103871.63;5345016;27;20028;-84
2022/01/18 05:45:48;;;;;;;95.60;30.58;;;;;;;3.82;100.00;103858.53;5344552;27;20038;-85
2022/01/18 05:48:19;;;;;;;119.85;30.30;;;;;;;3.76;100.00;103852.44;5346149;27;20415;-85
2022/01/18 05:50:52;;;;;;;122.88;29.42;;;;;;;3.73;100.00;103849.84;5345044;27;20031;-84
2022/01/18 05:53:24;;;;;;;98.85;29.25;;;;;;;3.74;100.00;103845.44;5322412;28;20024;-84
2022/01/18 05:55:55;;;;;;;89.85;28.45;;;;;;;3.75;100.00;103847.19;5326083;27;20024;-84
2022/01/18 05:58:27;;;;;;;86.97;28.30;;;;;;;3.78;100.00;103844.50;5326893;27;20096;-84
2022/01/18 06:00:58;;;;;;;86.28;27.13;;;;;;;3.69;100.00;103845.50;5324847;27;20395;-84
2022/01/18 06:03:36;;;;;;;89.35;30.05;;;;;;;3.83;100.00;103852.34;5323900;27;20195;-84
2022/01/18 06:08:57;;;;;;;75.40;25.80;;;;;;;4.14;100.00;103848.28;5325600;28;20388;-84
2022/01/18 06:11:28;;;;;;;97.18;30.80;;;;;;;4.12;100.00;103846.56;5321610;28;20063;-84
2022/01/18 06:14:00;;;;;;;110.20;33.33;;;;;;;3.92;100.00;103852.19;5325552;27;20027;-85
2022/01/18 06:16:31;;;;;;;104.93;30.58;;;;;;;3.87;100.00;103846.97;5321683;27;20424;-84
2022/01/18 06:19:03;;;;;;;119.68;29.83;;;;;;;3.77;100.00;103834.84;5318920;28;20492;-84
2022/01/18 06:21:34;;;;;;;114.43;28.83;;;;;;;3.80;100.00;103845.34;5325174;27;20383;-85
2022/01/18 06:24:08;;;;;;;109.75;30.85;;;;;;;3.74;100.00;103843.69;5326789;27;20024;-83
2022/01/18 06:26:39;;;;;;;105.18;28.35;;;;;;;3.96;100.00;103854.78;5322870;27;20496;-84
2022/01/18 06:29:10;;;;;;;95.63;29.35;;;;;;;4.01;100.00;103859.97;5325488;27;20096;-83
2022/01/18 06:31:42;;;;;;;89.00;27.13;;;;;;;4.13;100.00;103856.25;5324514;27;20182;-83
2022/01/18 06:34:14;;;;;;;95.13;30.13;;;;;;;4.02;100.00;103845.88;5324760;28;20024;-83
2022/01/18 06:36:48;;;;;;;97.18;27.67;;;;;;;4.25;100.00;103849.88;5325358;27;20039;-84
2022/01/18 06:39:20;;;;;;;118.00;32.80;;;;;;;4.04;100.00;103849.34;5326195;27;20103;-84
2022/01/18 06:41:51;;;;;;;88.88;29.75;;;;;;;4.29;100.00;103848.91;5325822;28;20177;-85
2022/01/18 06:44:24;;;;;;;90.78;28.02;;;;;;;4.26;100.00;103838.38;5326280;27;20020;-84
2022/01/18 06:46:55;;;;;;;107.18;29.88;;;;;;;4.14;100.00;103852.72;5324854;27;20040;-83
2022/01/18 06:49:26;;;;;;;96.88;28.75;;;;;;;4.25;100.00;103853.38;5325669;28;20114;-84
2022/01/18 06:51:58;;;;;;;89.30;28.80;;;;;;;4.27;100.00;103854.22;5323999;28;20388;-83
2022/01/18 06:54:29;;;;;;;106.45;29.65;;;;;;;4.11;100.00;103855.41;5323339;28;20068;-84
2022/01/18 06:57:01;;;;;;;97.75;28.10;;;;;;;4.10;100.00;103854.53;5326254;28;20103;-84
2022/01/18 06:59:34;;;;;;;107.50;33.30;;;;;;;4.21;100.00;103859.63;5323967;27;20065;-84
2022/01/18 07:02:05;;;;;;;100.20;30.60;;;;;;;4.15;100.00;103857.09;5324726;27;20040;-84
2022/01/18 07:04:37;;;;;;;91.82;30.42;;;;;;;4.29;100.00;103868.28;5326780;28;20028;-84
2022/01/18 07:07:08;;;;;;;111.60;33.42;;;;;;;4.19;100.00;103863.19;5326398;27;20444;-84
2022/01/18 07:09:39;;;;;;;122.68;32.22;;;;;;;4.07;100.00;103866.94;5325933;27;20043;-84
2022/01/18 07:12:12;;;;;;;96.47;28.73;;;;;;;4.20;100.00;103868.44;5325252;27;20528;-84
2022/01/18 07:14:44;;;;;;;90.28;28.92;;;;;;;4.20;100.00;103863.16;5324919;28;20372;-84
2022/01/18 07:17:15;;;;;;;109.60;29.73;;;;;;;4.03;100.00;103867.84;5324860;27;20032;-84
2022/01/18 07:19:47;;;;;;;98.10;28.40;;;;;;;4.12;100.00;103870.34;5323215;27;20053;-84
2022/01/18 07:22:18;;;;;;;86.38;27.02;;;;;;;4.26;100.00;103870.09;5323971;28;20027;-84
2022/01/18 07:24:55;;;;;;;120.53;30.48;;;;;;;4.05;100.00;103881.91;5330260;28;20082;-84
2022/01/18 07:27:26;;;;;;;;;;;;;;;4.20;100.00;103879.00;5328818;28;20036;-85
2022/01/18 07:29:58;;;;;;;82.90;26.73;;;;;;;4.15;100.00;103873.81;5331336;27;20274;-84
2022/01/18 07:32:29;;;;;;;85.32;27.20;;;;;;;4.24;100.00;103888.63;5341557;28;20035;-85
2022/01/18 07:35:02;;;;;;;86.05;27.92;;;;;;;4.21;100.00;103875.47;5333631;27;20028;-84
2022/01/18 07:37:33;;;;;;;98.57;29.88;;;;;;;4.14;100.00;103882.63;5347589;27;20099;-84
2022/01/18 07:40:06;;;;;;;97.05;28.63;;;;;;;4.15;100.00;103878.22;5326867;28;20107;-84
2022/01/18 07:42:37;;;;;;;94.95;27.02;;;;;;;4.13;100.00;103880.03;5329277;27;20051;-84
2022/01/18 07:45:09;;;;;;;88.05;27.63;;;;;;;4.19;100.00;103890.50;5327778;28;20017;-83
2022/01/18 07:47:40;;;;;;;99.65;30.50;;;;;;;4.07;100.00;103888.94;5318647;28;20024;-84
2022/01/18 07:50:12;;;;;;;97.22;29.25;;;;;;;4.22;100.00;103882.50;5311305;28;20094;-85
2022/01/18 07:52:44;;;;;;;113.43;29.60;;;;;;;4.16;100.00;103894.03;5325552;28;20044;-84
2022/01/18 07:55:16;;;;;;;78.10;27.25;;;;;;;4.24;100.00;103885.97;5327672;28;20055;-84
2022/01/18 07:57:47;;;;;;;101.65;29.83;;;;;;;4.08;100.00;103879.22;5326938;27;20099;-83
2022/01/18 08:00:20;;;;;;;103.38;30.05;;;;;;;4.04;100.00;103878.41;5327590;27;20028;-84
2022/01/18 08:02:51;;;;;;;109.30;28.88;;;;;;;4.11;100.00;103893.25;5331314;27;20416;-84
2022/01/18 08:05:23;;;;;;;101.93;29.65;;;;;;;4.01;100.00;103869.66;5330510;28;20035;-84
2022/01/18 08:07:54;;;;;;;92.45;28.60;;;;;;;4.20;100.00;103900.16;5327644;27;20032;-84
2022/01/18 08:10:30;;;;;;;138.05;32.17;;;;;;;4.16;100.00;103890.53;5307884;28;20111;-84
2022/01/18 08:13:03;;;;;;;117.13;31.25;;;;;;;4.24;100.00;103906.25;5306309;28;20111;-84
2022/01/18 08:15:39;;;;;;;104.95;28.77;;;;;;;4.28;100.00;103903.53;5308337;28;20349;-85
2022/01/18 08:18:13;;;;;;;130.40;32.38;;;;;;;4.32;100.00;103904.34;5306124;28;20024;-84
2022/01/18 08:20:45;;;;;;;86.38;26.42;;;;;;;4.51;100.00;103889.06;5307289;28;20053;-85
2022/01/18 08:23:16;;;;;;;154.60;35.13;;;;;;;4.32;100.00;103886.72;5308585;28;20025;-85
2022/01/18 08:25:48;;;;;;;120.30;32.45;;;;;;;4.46;100.00;103885.63;5308766;28;20150;-84
2022/01/18 08:28:19;;;;;;;121.85;31.20;;;;;;;4.44;100.00;103885.63;5308126;28;20036;-84
2022/01/18 08:30:51;;;;;;;112.63;31.00;;;;;;;4.52;100.00;103888.13;5307634;28;20064;-84
2022/01/18 08:33:24;;;;;;;115.72;30.23;;;;;;;4.52;100.00;103883.75;5306454;28;20118;-84
2022/01/18 08:35:56;;;;;;;166.13;34.80;;;;;;;4.27;100.00;103859.50;5306340;28;20346;-84
2022/01/18 08:38:28;;;;;;;128.30;32.30;;;;;;;4.53;100.00;103876.66;5306309;28;20112;-84
2022/01/18 08:41:00;;;;;;;125.57;32.28;;;;;;;4.47;100.00;103852.97;5319271;28;20458;-84
2022/01/18 08:43:33;;;;;;;148.88;35.38;;;;;;;4.50;100.00;103882.88;5313791;28;20021;-84
2022/01/18 08:46:05;;;;;;;146.38;35.08;;;;;;;4.58;100.00;103887.16;5307599;28;20020;-84
2022/01/18 08:48:37;;;;;;;133.82;36.58;;;;;;;4.57;100.00;103891.56;5307097;28;20017;-84
2022/01/18 08:51:09;;;;;;;126.50;34.20;;;;;;;4.57;100.00;103882.78;5307187;28;20107;-83
2022/01/18 08:53:42;;;;;;;127.70;32.75;;;;;;;4.57;100.00;103873.06;5320678;27;20115;-84
2022/01/18 08:56:16;;;;;;;121.22;34.03;;;;;;;4.67;100.00;103881.69;5329631;27;20024;-85
2022/01/18 08:58:48;;;;;;;107.35;32.75;;;;;;;4.70;100.00;103874.56;5328486;27;20484;-84
2022/01/18 09:01:20;;;;;;;104.57;31.63;;;;;;;4.85;100.00;103881.31;5326420;27;20016;-84
2022/01/18 09:03:51;;;;;;;113.78;33.67;;;;;;;4.97;100.00;103898.72;5321938;28;20048;-84
2022/01/18 09:06:24;;;;;;;104.68;30.02;;;;;;;5.07;100.00;103894.13;5308626;28;20028;-85
2022/01/18 09:08:57;;;;;;;112.65;32.97;;;;;;;5.01;100.00;103889.81;5311215;28;20017;-84
2022/01/18 09:11:31;;;;;;;84.80;25.88;;;;;;;5.07;100.00;103876.47;5332757;28;20012;-83
2022/01/18 09:14:02;;;;;;;110.47;30.08;;;;;;;5.09;100.00;103887.03;5336022;27;20024;-84
2022/01/18 09:16:34;;;;;;;102.78;29.85;;;;;;;5.05;100.00;103875.63;5333985;28;20013;-83
2022/01/18 09:19:05;;;;;;;94.85;29.48;;;;;;;5.12;100.00;103892.25;5333048;27;20429;-84
2022/01/18 09:21:37;;;;;;;81.68;25.20;;;;;;;5.21;100.00;103905.28;5323375;27;20024;-83
2022/01/18 09:24:09;;;;;;;88.18;27.67;;;;;;;5.20;100.00;103900.88;5309294;28;20441;-84
2022/01/18 09:26:40;;;;;;;81.00;24.60;;;;;;;5.37;100.00;103910.25;5305043;28;20024;-84
2022/01/18 09:29:14;;;;;;;74.28;24.80;;;;;;;5.23;100.00;103892.88;5313779;28;20024;-83
2022/01/18 09:31:45;;;;;;;62.78;22.02;;;;;;;5.43;100.00;103918.03;5324580;27;20096;-83
2022/01/18 09:34:17;;;;;;;80.55;24.65;;;;;;;5.30;100.00;103910.38;5325931;28;20039;-82
2022/01/18 09:36:48;;;;;;;77.55;23.95;;;;;;;5.39;100.00;103911.09;5329658;28;20028;-83
2022/01/18 09:39:19;;;;;;;100.28;27.25;;;;;;;5.40;100.00;103913.72;5330157;27;20099;-83
2022/01/18 09:41:52;;;;;;;93.10;28.75;;;;;;;5.43;100.00;103921.56;5330511;27;20039;-83
2022/01/18 09:44:24;;;;;;;77.32;28.42;;;;;;;5.58;100.00;103914.22;5329851;27;20052;-83
2022/01/18 09:46:56;;;;;;;102.72;30.58;;;;;;;5.57;100.00;103904.50;5334835;27;20476;-84
2022/01/18 09:49:28;;;;;;;90.00;31.52;;;;;;;5.72;100.00;103920.06;5324895;28;20016;-84
2022/01/18 09:52:00;;;;;;;74.78;26.85;;;;;;;5.84;100.00;103914.47;5308472;28;20020;-83
2022/01/18 09:54:32;;;;;;;74.90;26.73;;;;;;;6.09;100.00;103918.34;5304959;28;20500;-84
2022/01/18 09:57:03;;;;;;;87.63;32.25;;;;;;;6.15;100.00;103926.13;5304957;28;20461;-85
2022/01/18 09:59:35;;;;;;;82.15;32.38;;;;;;;6.23;100.00;103921.50;5303507;28;20083;-85
2022/01/18 10:02:09;;;;;;;72.88;27.33;;;;;;;6.29;100.00;103928.44;5304099;28;20052;-84
2022/01/18 10:04:42;;;;;;;68.55;27.67;;;;;;;6.34;100.00;103932.69;5305404;28;20035;-84
2022/01/18 10:07:14;;;;;;;60.08;24.95;;;;;;;6.33;100.00;103923.03;5334582;27;20400;-84
2022/01/18 10:09:45;;;;;;;60.80;25.65;;;;;;;6.33;100.00;103923.03;5329849;27;20034;-84
2022/01/18 10:12:22;;;;;;;67.90;28.73;;;;;;;6.41;100.00;103912.19;5324942;28;20020;-84
2022/01/18 10:14:58;;;;;;;53.80;25.08;;;;;;;6.60;100.00;103915.25;5325817;27;20034;-84
2022/01/18 10:17:35;;;;;;;57.40;24.08;;;;;;;6.82;100.00;103931.47;5323363;28;20024;-85
2022/01/18 10:20:08;;;;;;;48.10;23.40;;;;;;;6.87;100.00;103928.66;5325973;27;20024;-85
2022/01/18 10:22:41;;;;;;;49.35;22.73;;;;;;;6.98;100.00;103927.44;5326173;28;20039;-86
2022/01/18 10:25:13;;;;;;;39.55;20.20;;;;;;;7.23;100.00;103926.72;5320015;28;20078;-85
2022/01/18 10:27:53;;;;;;;41.63;19.30;;;;;;;7.38;100.00;103917.44;5326267;28;20031;-83
2022/01/18 10:30:43;;;;;;;41.40;22.73;;;;;;;7.53;100.00;103902.81;5318883;28;20028;-85
2022/01/18 10:33:18;;;;;;;39.97;21.17;;;;;;;7.55;100.00;103907.16;5309453;28;20480;-85
2022/01/18 10:36:11;;;;;;;38.83;19.02;;;;;;;7.74;100.00;103909.25;5324632;28;20039;-84
2022/01/18 10:38:50;;;;;;;39.30;20.33;;;;;;;7.84;100.00;103900.06;5325075;27;20111;-82
2022/01/18 10:41:28;;;;;;;45.22;24.33;;;;;;;8.06;100.00;103899.34;5325355;27;20460;-83
2022/01/18 10:44:05;;;;;;;38.70;19.88;;;;;;;8.11;100.00;103905.38;5325509;27;20023;-83
2022/01/18 10:46:39;;;;;;;34.97;20.83;;;;;;;8.72;100.00;103898.91;5305277;27;20074;-83
2022/01/18 10:49:23;;;;;;;40.70;20.98;;;;;;;9.26;100.00;103895.94;5304835;28;20040;-82
2022/01/18 10:52:08;;;;;;;37.63;19.60;;;;;;;10.40;100.00;103901.13;5303967;28;20330;-82
2022/01/18 10:54:59;;;;;;;41.17;20.08;;;;;;;10.67;100.00;103875.00;5304566;28;20032;-85
2022/01/18 10:57:39;;;;;;;33.47;16.15;;;;;;;10.83;100.00;103885.84;5305812;28;20051;-84
2022/01/18 11:00:18;;;;;;;28.45;15.75;;;;;;;10.78;100.00;103870.06;5321684;27;20024;-84
2022/01/18 11:02:53;;;;;;;35.00;17.30;;;;;;;10.47;100.00;103854.56;5312845;28;20060;-84
2022/01/18 11:05:27;;;;;;;35.20;17.33;;;;;;;11.21;100.00;103864.53;5302429;28;20032;-84
2022/01/18 11:08:04;;;;;;;26.70;14.90;;;;;;;12.03;100.00;103863.25;5302296;28;20025;-84
2022/01/18 11:10:41;;;;;;;29.55;16.08;;;;;;;13.96;100.00;103846.34;5304321;28;20013;-84
2022/01/18 11:13:24;;;;;;;23.88;13.75;;;;;;;15.16;100.00;103856.84;5303613;28;20093;-84
2022/01/18 11:16:03;;;;;;;25.98;14.55;;;;;;;16.99;100.00;103855.16;5306965;28;20143;-85
2022/01/18 11:18:37;;;;;;;26.35;12.88;;;;;;;17.90;100.00;103864.63;5311397;28;20073;-84
2022/01/18 11:21:08;;;;;;;25.00;12.07;;;;;;;18.95;100.00;103864.53;5327105;28;20013;-84
2022/01/18 11:23:40;;;;;;;26.33;11.77;;;;;;;19.72;100.00;103860.00;5326464;28;20035;-84
2022/01/18 11:26:11;;;;;;;25.05;12.48;;;;;;;20.38;100.00;103855.19;5326546;28;20130;-84
2022/01/18 11:28:43;;;;;;;21.98;10.85;;;;;;;21.32;100.00;103840.53;5324915;28;20029;-84
2022/01/18 11:31:15;;;;;;;21.23;9.65;;;;;;;21.68;89.66;103852.56;5311912;28;20102;-84
2022/01/18 11:33:55;;;;;;;19.10;8.80;;;;;;;22.80;88.06;103840.97;5327485;28;20503;-80
2022/01/18 11:36:37;;;;;;;16.33;8.27;;;;;;;22.47;100.00;103847.84;5327410;27;20054;-84
2022/01/18 11:39:10;;;;;;;18.23;8.75;;;;;;;21.80;73.89;103839.69;5322164;28;20087;-84
2022/01/18 11:41:43;;;;;;;20.05;8.93;;;;;;;22.53;54.50;103833.69;5306754;28;20035;-84
2022/01/18 11:44:17;;;;;;;18.67;7.45;;;;;;;22.21;69.51;103834.03;5326838;28;20038;-84
2022/01/18 11:46:52;;;;;;;20.17;8.23;;;;;;;20.71;70.39;103826.13;5326268;28;20024;-83
2022/01/18 11:49:28;;;;;;;18.98;7.63;;;;;;;19.18;87.24;103829.28;5326357;28;20381;-84
2022/01/18 11:52:05;;;;;;;;;;;;;;;21.01;95.30;103835.19;5326644;28;20125;-84
2022/01/18 11:57:22;;;;;;;22.90;10.00;;;;;;;15.55;100.00;103832.81;5305931;28;20279;-84
2022/01/18 11:59:58;;;;;;;22.02;10.13;;;;;;;15.25;100.00;103818.63;5305985;28;20028;-83
2022/01/18 12:02:40;;;;;;;24.77;10.30;;;;;;;14.19;100.00;103828.84;5325526;28;20040;-83
2022/01/18 12:05:21;;;;;;;25.73;11.60;;;;;;;13.49;100.00;103815.13;5326981;27;20711;-84
2022/01/18 12:07:56;;;;;;;22.73;9.63;;;;;;;13.12;100.00;103822.56;5320426;28;20036;-84
2022/01/18 12:10:31;;;;;;;21.80;9.90;;;;;;;14.29;100.00;103817.56;5308222;28;20043;-84
2022/01/18 12:13:10;;;;;;;25.48;10.82;;;;;;;17.52;100.00;103811.66;5307119;28;20054;-83
2022/01/18 12:15:49;;;;;;;21.13;8.30;;;;;;;17.92;100.00;103815.91;5323843;28;20065;-84
2022/01/18 12:18:24;;;;;;;21.98;9.57;;;;;;;17.01;100.00;103807.34;5320288;28;20075;-83
2022/01/18 12:21:04;;;;;;;21.98;9.75;;;;;;;16.11;100.00;103805.72;5319797;28;20043;-83
2022/01/18 12:23:41;;;;;;;21.38;9.70;;;;;;;15.55;100.00;103816.66;5326518;28;20031;-84
2022/01/18 12:26:37;;;;;;;23.88;9.23;;;;;;;16.76;100.00;103799.28;5328097;27;20012;-83
2022/01/18 12:34:47;;;;;;;17.83;7.75;;;;;;;14.09;100.00;103798.13;5326486;27;20082;-84
2022/01/18 12:37:20;;;;;;;23.02;9.20;;;;;;;14.34;100.00;103800.19;5324830;28;20027;-84
2022/01/18 12:39:51;;;;;;;18.27;8.60;;;;;;;13.64;100.00;103810.69;5326070;28;20422;-83
2022/01/18 12:45:05;;;;;;;20.40;8.90;;;;;;;13.24;100.00;103792.38;5326537;27;20054;-84